createdAt,value
2017-09-03T00:01:15.311Z,10.90
2017-09-03T00:03:42.850Z,10.90
2017-09-03T00:06:10.354Z,10.90
2017-09-03T00:08:37.881Z,10.90
2017-09-03T00:11:05.390Z,10.90
2017-09-03T00:13:32.882Z,10.90
2017-09-03T00:16:00.392Z,10.80
2017-09-03T00:18:27.889Z,10.70
2017-09-03T00:20:55.415Z,10.60
2017-09-03T00:23:23.669Z,10.60
2017-09-03T00:25:51.186Z,10.60
2017-09-03T00:28:18.702Z,10.60
2017-09-03T00:30:46.221Z,10.50
2017-09-03T00:33:13.722Z,10.50
2017-09-03T00:35:41.235Z,10.50
2017-09-03T00:38:08.726Z,10.50
2017-09-03T00:40:36.336Z,10.50
2017-09-03T00:43:03.858Z,10.50
2017-09-03T00:45:31.407Z,10.50
2017-09-03T00:47:58.918Z,10.40
2017-09-03T00:50:26.422Z,10.30
2017-09-03T00:52:54.037Z,10.30
2017-09-03T00:55:21.549Z,10.30
2017-09-03T00:57:49.063Z,10.30
2017-09-03T01:00:16.559Z,10.30
2017-09-03T01:02:44.073Z,10.30
2017-09-03T01:05:11.573Z,10.40
2017-09-03T01:07:39.091Z,10.40
2017-09-03T01:10:06.682Z,10.40
2017-09-03T01:12:34.198Z,10.40
2017-09-03T01:15:01.766Z,10.40
2017-09-03T01:17:29.304Z,10.30
2017-09-03T01:19:56.817Z,10.30
2017-09-03T01:22:24.313Z,10.30
2017-09-03T01:24:51.824Z,10.40
2017-09-03T01:27:19.324Z,10.40
2017-09-03T01:29:46.840Z,10.30
2017-09-03T01:32:14.365Z,10.30
2017-09-03T01:34:41.891Z,10.20
2017-09-03T01:37:09.458Z,10.10
2017-09-03T01:39:36.970Z,10.10
2017-09-03T01:42:04.536Z,10.00
2017-09-03T01:44:32.081Z,10.00
2017-09-03T01:46:59.575Z,10.00
2017-09-03T01:49:27.104Z,10.00
2017-09-03T01:51:54.639Z,10.00
2017-09-03T01:54:22.133Z,9.90
2017-09-03T01:56:49.642Z,9.90
2017-09-03T01:59:17.131Z,9.80
2017-09-03T02:01:44.689Z,9.80
2017-09-03T02:04:12.255Z,9.90
2017-09-03T02:06:39.776Z,9.90
2017-09-03T02:09:07.321Z,9.90
2017-09-03T02:11:34.830Z,9.90
2017-09-03T02:14:02.422Z,9.90
2017-09-03T02:16:29.954Z,9.90
2017-09-03T02:18:57.450Z,9.90
2017-09-03T02:21:24.972Z,9.90
2017-09-03T02:23:52.488Z,9.90
2017-09-03T02:26:19.978Z,9.90
2017-09-03T02:28:47.575Z,9.80
2017-09-03T02:31:15.118Z,9.80
2017-09-03T02:33:42.639Z,9.70
2017-09-03T02:36:10.130Z,9.70
2017-09-03T02:38:37.633Z,9.80
2017-09-03T02:41:05.194Z,9.70
2017-09-03T02:43:32.835Z,9.60
2017-09-03T02:46:00.328Z,9.60
2017-09-03T02:48:27.925Z,9.60
2017-09-03T02:50:55.449Z,9.60
2017-09-03T02:53:23.317Z,9.60
2017-09-03T02:55:50.833Z,9.60
2017-09-03T02:58:18.410Z,9.60
2017-09-03T03:00:45.917Z,9.60
2017-09-03T03:03:13.410Z,9.60
2017-09-03T03:05:40.921Z,9.60
2017-09-03T03:08:08.413Z,9.60
2017-09-03T03:10:35.922Z,9.60
2017-09-03T03:13:03.498Z,9.70
2017-09-03T03:15:31.032Z,9.70
2017-09-03T03:17:58.581Z,9.70
2017-09-03T03:20:26.125Z,9.80
2017-09-03T03:22:53.669Z,9.70
2017-09-03T03:25:21.170Z,9.70
2017-09-03T03:27:48.678Z,9.60
2017-09-03T03:30:16.172Z,9.60
2017-09-03T03:32:43.681Z,9.50
2017-09-03T03:35:11.264Z,9.60
2017-09-03T03:37:38.820Z,9.60
2017-09-03T03:40:06.296Z,9.60
2017-09-03T03:42:33.821Z,9.60
2017-09-03T03:45:01.362Z,9.70
2017-09-03T03:47:28.858Z,9.70
2017-09-03T03:49:56.444Z,9.70
2017-09-03T03:52:23.980Z,9.70
2017-09-03T03:54:51.493Z,9.70
2017-09-03T03:57:18.985Z,9.70
2017-09-03T03:59:46.510Z,9.70
2017-09-03T04:02:14.057Z,9.70
2017-09-03T04:04:41.562Z,9.70
2017-09-03T04:07:09.049Z,9.70
2017-09-03T04:09:36.548Z,9.60
2017-09-03T04:12:04.112Z,9.60
2017-09-03T04:14:31.617Z,9.50
2017-09-03T04:16:59.122Z,9.50
2017-09-03T04:19:26.610Z,9.50
2017-09-03T04:21:54.117Z,9.50
2017-09-03T04:24:21.605Z,9.40
2017-09-03T04:26:49.111Z,9.40
2017-09-03T04:29:16.606Z,9.50
2017-09-03T04:31:44.113Z,9.50
2017-09-03T04:34:11.596Z,9.60
2017-09-03T04:36:39.101Z,9.50
2017-09-03T04:39:06.585Z,9.50
2017-09-03T04:41:34.118Z,9.40
2017-09-03T04:44:01.609Z,9.40
2017-09-03T04:46:29.120Z,9.50
2017-09-03T04:48:56.617Z,9.50
2017-09-03T04:51:24.204Z,9.50
2017-09-03T04:53:51.712Z,9.60
2017-09-03T04:56:19.199Z,9.60
2017-09-03T04:58:46.703Z,9.70
2017-09-03T05:01:14.194Z,9.70
2017-09-03T05:03:41.711Z,9.70
2017-09-03T05:06:09.190Z,9.80
2017-09-03T05:08:36.697Z,9.80
2017-09-03T05:11:04.221Z,9.80
2017-09-03T05:13:31.773Z,9.80
2017-09-03T05:15:59.313Z,9.80
2017-09-03T05:18:26.796Z,9.80
2017-09-03T05:20:54.401Z,9.90
2017-09-03T05:23:21.885Z,9.90
2017-09-03T05:25:49.393Z,9.90
2017-09-03T05:28:16.880Z,10.00
2017-09-03T05:30:44.384Z,10.00
2017-09-03T05:33:11.877Z,10.20
2017-09-03T05:35:39.389Z,10.10
2017-09-03T05:38:06.881Z,10.20
2017-09-03T05:40:34.393Z,10.30
2017-09-03T05:43:01.990Z,10.40
2017-09-03T05:45:29.488Z,10.60
2017-09-03T05:47:56.993Z,11.00
2017-09-03T05:50:24.476Z,11.50
2017-09-03T05:52:51.974Z,11.90
2017-09-03T05:55:19.466Z,12.20
2017-09-03T05:57:46.973Z,12.70
2017-09-03T06:00:14.465Z,13.00
2017-09-03T06:02:41.972Z,13.40
2017-09-03T06:05:09.460Z,13.80
2017-09-03T06:07:36.977Z,14.30
2017-09-03T06:10:04.464Z,14.40
2017-09-03T06:12:32.003Z,13.90
2017-09-03T06:14:59.494Z,13.40
2017-09-03T06:17:27.091Z,12.90
2017-09-03T06:19:54.594Z,12.60
2017-09-03T06:22:22.083Z,12.50
2017-09-03T06:24:49.597Z,12.60
2017-09-03T06:27:17.089Z,12.50
2017-09-03T06:29:44.588Z,12.40
2017-09-03T06:32:12.080Z,12.30
2017-09-03T06:34:39.588Z,12.50
2017-09-03T06:37:07.072Z,12.70
2017-09-03T06:39:34.578Z,13.90
2017-09-03T06:42:02.112Z,14.60
2017-09-03T06:44:29.617Z,15.50
2017-09-03T06:46:57.200Z,16.60
2017-09-03T06:49:24.744Z,17.20
2017-09-03T06:51:52.301Z,18.20
2017-09-03T06:54:19.789Z,18.20
2017-09-03T06:56:47.374Z,18.60
2017-09-03T06:59:14.861Z,19.20
2017-09-03T07:01:42.464Z,20.00
2017-09-03T07:04:09.953Z,19.60
2017-09-03T07:06:37.474Z,19.20
2017-09-03T07:09:04.966Z,19.70
2017-09-03T07:11:32.545Z,20.30
2017-09-03T07:14:00.041Z,21.80
2017-09-03T07:16:27.562Z,21.10
2017-09-03T07:18:55.086Z,20.70
2017-09-03T07:21:22.713Z,20.20
2017-09-03T07:23:50.255Z,21.40
2017-09-03T07:26:17.809Z,21.00
2017-09-03T07:28:45.324Z,21.90
2017-09-03T07:31:12.821Z,22.70
2017-09-03T07:33:40.442Z,22.40
2017-09-03T07:36:07.960Z,22.00
2017-09-03T07:38:35.516Z,21.90
2017-09-03T07:41:03.004Z,22.00
2017-09-03T07:43:30.504Z,21.20
2017-09-03T07:45:58.055Z,22.90
2017-09-03T07:48:25.592Z,22.60
2017-09-03T07:50:53.102Z,22.30
2017-09-03T07:53:20.624Z,21.80
2017-09-03T07:55:48.118Z,21.20
2017-09-03T07:58:15.668Z,22.10
2017-09-03T08:00:43.157Z,21.30
2017-09-03T08:03:10.647Z,21.40
2017-09-03T08:05:38.200Z,21.30
2017-09-03T08:08:05.770Z,22.00
2017-09-03T08:10:33.490Z,21.10
2017-09-03T08:13:00.986Z,20.10
2017-09-03T08:15:28.504Z,22.10
2017-09-03T08:17:56.030Z,21.70
2017-09-03T08:20:23.561Z,21.30
2017-09-03T08:22:51.118Z,21.20
2017-09-03T08:25:18.657Z,20.90
2017-09-03T08:27:46.144Z,20.90
2017-09-03T08:30:13.709Z,20.40
2017-09-03T08:32:41.253Z,21.80
2017-09-03T08:35:08.740Z,22.30
2017-09-03T08:37:36.249Z,21.70
2017-09-03T08:40:03.764Z,22.40
2017-09-03T08:42:31.273Z,22.00
2017-09-03T08:44:58.776Z,22.10
2017-09-03T08:47:26.280Z,21.20
2017-09-03T08:49:53.853Z,21.40
2017-09-03T08:52:21.436Z,21.90
2017-09-03T08:54:48.964Z,22.50
2017-09-03T08:57:16.845Z,21.90
2017-09-03T08:59:44.332Z,22.00
2017-09-03T09:02:11.962Z,22.50
2017-09-03T09:04:39.483Z,22.30
2017-09-03T09:07:07.032Z,22.50
2017-09-03T09:09:34.594Z,22.30
2017-09-03T09:12:02.082Z,22.30
2017-09-03T09:14:29.588Z,22.00
2017-09-03T09:16:57.085Z,22.20
2017-09-03T09:19:25.369Z,23.70
2017-09-03T09:21:52.938Z,22.90
2017-09-03T09:24:20.778Z,21.50
2017-09-03T09:26:48.273Z,22.40
2017-09-03T09:29:15.780Z,23.90
2017-09-03T09:31:43.293Z,23.20
2017-09-03T09:34:10.818Z,23.40
2017-09-03T09:36:38.308Z,23.20
2017-09-03T09:39:05.818Z,22.80
2017-09-03T09:41:33.352Z,22.80
2017-09-03T09:44:00.845Z,23.80
2017-09-03T09:46:28.379Z,23.30
2017-09-03T09:48:55.917Z,23.20
2017-09-03T09:51:23.627Z,23.10
2017-09-03T09:53:51.408Z,22.40
2017-09-03T09:56:28.700Z,22.80
2017-09-03T09:58:56.238Z,22.40
2017-09-03T10:01:23.930Z,22.80
2017-09-03T10:03:51.532Z,22.80
2017-09-03T10:06:19.081Z,22.20
2017-09-03T10:08:46.577Z,22.00
2017-09-03T10:11:14.193Z,22.30
2017-09-03T10:13:41.784Z,22.50
2017-09-03T10:16:09.320Z,22.40
2017-09-03T10:18:36.836Z,22.60
2017-09-03T10:21:04.433Z,22.30
2017-09-03T10:23:32.007Z,23.10
2017-09-03T10:25:59.649Z,21.80
2017-09-03T10:28:27.265Z,21.90
2017-09-03T10:30:54.928Z,22.70
2017-09-03T10:33:23.229Z,22.60
2017-09-03T10:35:50.816Z,23.30
2017-09-03T10:38:18.531Z,23.00
2017-09-03T10:40:46.198Z,23.20
2017-09-03T10:43:14.873Z,23.20
2017-09-03T10:45:42.609Z,21.70
2017-09-03T10:48:10.386Z,22.60
2017-09-03T10:50:38.006Z,22.60
2017-09-03T10:53:05.501Z,21.90
2017-09-03T10:55:33.006Z,21.30
2017-09-03T10:58:00.518Z,21.80
2017-09-03T11:00:28.058Z,22.40
2017-09-03T11:02:56.005Z,22.70
2017-09-03T11:05:25.338Z,22.40
2017-09-03T11:07:53.281Z,22.40
2017-09-03T11:10:21.761Z,22.50
2017-09-03T11:12:49.272Z,23.20
2017-09-03T11:15:16.761Z,21.90
2017-09-03T11:17:44.433Z,21.50
2017-09-03T11:20:11.996Z,22.20
2017-09-03T11:22:39.541Z,22.70
2017-09-03T11:25:07.029Z,21.80
2017-09-03T11:27:34.550Z,22.60
2017-09-03T11:30:02.042Z,22.50
2017-09-03T11:32:29.638Z,23.30
2017-09-03T11:34:57.191Z,23.10
2017-09-03T11:37:26.077Z,23.40
2017-09-03T11:39:53.863Z,23.60
2017-09-03T11:42:21.875Z,22.60
2017-09-03T11:44:49.437Z,23.10
2017-09-03T11:47:16.971Z,22.70
2017-09-03T11:49:45.026Z,22.10
2017-09-03T11:52:12.804Z,21.80
2017-09-03T11:54:40.396Z,21.30
2017-09-03T11:57:07.884Z,21.00
2017-09-03T11:59:35.384Z,21.40
2017-09-03T12:02:02.873Z,21.60
2017-09-03T12:04:30.402Z,21.70
2017-09-03T12:06:57.970Z,21.50
2017-09-03T12:09:26.057Z,22.30
2017-09-03T12:11:54.560Z,22.80
2017-09-03T12:14:32.270Z,22.90
2017-09-03T12:16:59.963Z,22.90
2017-09-03T12:19:27.913Z,22.50
2017-09-03T12:21:55.531Z,22.40
2017-09-03T12:24:23.471Z,22.90
2017-09-03T12:26:51.165Z,21.90
2017-09-03T12:29:18.753Z,22.70
2017-09-03T12:31:46.335Z,22.70
2017-09-03T12:34:13.873Z,22.80
2017-09-03T12:36:41.460Z,22.50
2017-09-03T12:39:08.959Z,23.00
2017-09-03T12:41:36.521Z,22.80
2017-09-03T12:44:04.025Z,22.50
2017-09-03T12:46:31.609Z,22.90
2017-09-03T12:48:59.218Z,22.80
2017-09-03T12:51:26.704Z,22.10
2017-09-03T12:53:54.274Z,22.80
2017-09-03T12:56:21.848Z,22.40
2017-09-03T12:58:49.436Z,22.90
2017-09-03T13:01:16.929Z,23.50
2017-09-03T13:03:44.555Z,24.00
2017-09-03T13:06:12.078Z,23.90
2017-09-03T13:08:39.575Z,23.40
2017-09-03T13:11:07.078Z,23.50
2017-09-03T13:13:34.596Z,22.60
2017-09-03T13:16:02.102Z,22.90
2017-09-03T13:18:29.590Z,23.30
2017-09-03T13:20:57.128Z,23.90
2017-09-03T13:23:24.683Z,24.00
2017-09-03T13:25:52.345Z,23.60
2017-09-03T13:28:19.832Z,23.90
2017-09-03T13:30:47.329Z,23.00
2017-09-03T13:33:14.857Z,23.10
2017-09-03T13:35:42.369Z,22.30
2017-09-03T13:38:09.901Z,22.90
2017-09-03T13:40:37.413Z,23.10
2017-09-03T13:43:04.963Z,22.90
2017-09-03T13:45:32.450Z,23.60
2017-09-03T13:47:59.977Z,23.40
2017-09-03T13:50:27.472Z,23.70
2017-09-03T13:52:55.001Z,23.70
2017-09-03T13:55:22.492Z,23.50
2017-09-03T13:57:50.016Z,23.60
2017-09-03T14:00:17.501Z,23.70
2017-09-03T14:02:45.020Z,23.70
2017-09-03T14:05:12.751Z,23.70
2017-09-03T14:07:40.306Z,23.40
2017-09-03T14:10:07.808Z,23.70
2017-09-03T14:12:35.310Z,23.30
2017-09-03T14:15:02.920Z,23.00
2017-09-03T14:17:30.405Z,22.90
2017-09-03T14:19:58.005Z,22.10
2017-09-03T14:22:25.554Z,22.30
2017-09-03T14:24:53.069Z,23.00
2017-09-03T14:27:20.557Z,23.40
2017-09-03T14:29:48.085Z,23.20
2017-09-03T14:32:15.568Z,23.50
2017-09-03T14:34:43.091Z,22.60
2017-09-03T14:37:10.620Z,22.30
2017-09-03T14:39:38.718Z,22.00
2017-09-03T14:42:06.246Z,22.40
2017-09-03T14:44:33.729Z,22.40
2017-09-03T14:47:01.237Z,22.60
2017-09-03T14:49:28.749Z,22.30
2017-09-03T14:51:56.329Z,22.60
2017-09-03T14:54:23.817Z,22.70
2017-09-03T14:56:51.408Z,22.90
2017-09-03T14:59:18.906Z,23.20
2017-09-03T15:01:46.493Z,22.90
2017-09-03T15:04:13.987Z,22.50
2017-09-03T15:06:41.516Z,21.80
2017-09-03T15:09:09.030Z,21.90
2017-09-03T15:11:36.541Z,21.90
2017-09-03T15:14:04.104Z,22.00
2017-09-03T15:16:31.620Z,22.10
2017-09-03T15:18:59.199Z,22.30
2017-09-03T15:21:26.744Z,22.20
2017-09-03T15:23:54.244Z,22.00
2017-09-03T15:26:22.063Z,22.10
2017-09-03T15:28:49.585Z,22.10
2017-09-03T15:31:17.148Z,21.90
2017-09-03T15:33:44.661Z,21.80
2017-09-03T15:36:12.165Z,21.70
2017-09-03T15:38:39.664Z,21.70
2017-09-03T15:41:07.197Z,21.70
2017-09-03T15:43:34.702Z,21.50
2017-09-03T15:46:02.194Z,21.60
2017-09-03T15:48:29.715Z,21.40
2017-09-03T15:50:57.206Z,21.40
2017-09-03T15:53:24.721Z,21.40
2017-09-03T15:55:52.239Z,21.40
2017-09-03T15:58:19.793Z,21.50
2017-09-03T16:00:47.370Z,21.60
2017-09-03T16:03:14.868Z,21.80
2017-09-03T16:05:42.389Z,21.50
2017-09-03T16:08:10.007Z,21.70
2017-09-03T16:10:37.517Z,21.90
2017-09-03T16:13:05.013Z,21.50
2017-09-03T16:15:32.509Z,21.40
2017-09-03T16:18:00.015Z,21.70
2017-09-03T16:20:27.588Z,21.90
2017-09-03T16:22:55.073Z,21.90
2017-09-03T16:25:22.601Z,21.70
2017-09-03T16:27:50.106Z,21.60
2017-09-03T16:30:17.606Z,21.60
2017-09-03T16:32:45.114Z,21.60
2017-09-03T16:35:12.850Z,21.40
2017-09-03T16:37:40.441Z,21.20
2017-09-03T16:40:07.926Z,21.30
2017-09-03T16:42:35.533Z,21.40
2017-09-03T16:45:03.034Z,21.40
2017-09-03T16:47:30.554Z,21.50
2017-09-03T16:49:58.084Z,21.40
2017-09-03T16:52:28.562Z,21.20
2017-09-03T16:54:56.807Z,21.20
2017-09-03T16:57:24.310Z,21.20
2017-09-03T16:59:51.801Z,21.20
2017-09-03T17:02:19.325Z,21.20
2017-09-03T17:04:46.824Z,21.20
2017-09-03T17:07:14.314Z,21.00
2017-09-03T17:09:41.818Z,21.20
2017-09-03T17:12:09.297Z,21.10
2017-09-03T17:14:36.797Z,21.00
2017-09-03T17:17:04.285Z,21.00
2017-09-03T17:19:31.788Z,21.00
2017-09-03T17:21:59.434Z,20.90
2017-09-03T17:24:26.982Z,20.80
2017-09-03T17:26:54.469Z,20.80
2017-09-03T17:29:22.034Z,20.80
2017-09-03T17:31:53.009Z,20.80
2017-09-03T17:34:20.492Z,20.70
2017-09-03T17:36:49.909Z,20.50
2017-09-03T17:39:17.413Z,20.50
2017-09-03T17:41:48.741Z,20.40
2017-09-03T17:44:16.241Z,20.40
2017-09-03T17:46:43.738Z,20.30
2017-09-03T17:49:11.221Z,20.20
2017-09-03T17:51:38.720Z,20.20
2017-09-03T17:54:06.198Z,20.10
2017-09-03T17:56:33.701Z,20.10
2017-09-03T17:59:01.193Z,20.00
2017-09-03T18:01:28.709Z,19.90
2017-09-03T18:03:56.192Z,19.80
2017-09-03T18:06:23.693Z,19.70
2017-09-03T18:08:51.169Z,19.60
2017-09-03T18:11:18.688Z,19.40
2017-09-03T18:13:46.169Z,19.40
2017-09-03T18:16:13.656Z,19.20
2017-09-03T18:18:41.157Z,19.10
2017-09-03T18:21:08.640Z,19.10
2017-09-03T18:23:36.909Z,18.90
2017-09-03T18:26:04.393Z,18.90
2017-09-03T18:28:31.900Z,18.90
2017-09-03T18:34:05.160Z,18.70
2017-09-03T18:36:37.189Z,18.60
2017-09-03T18:39:25.455Z,18.50
2017-09-03T18:41:54.977Z,18.50
2017-09-03T18:44:23.381Z,18.40
2017-09-03T18:46:54.453Z,18.30
2017-09-03T18:49:21.952Z,18.30
2017-09-03T18:51:54.113Z,18.20
2017-09-03T18:54:33.582Z,18.10
2017-09-03T18:57:01.069Z,18.00
2017-09-03T18:59:28.595Z,18.00
2017-09-03T19:01:56.072Z,17.90
2017-09-03T19:04:23.568Z,17.70
2017-09-03T19:06:51.052Z,17.50
2017-09-03T19:09:18.568Z,17.30
2017-09-03T19:11:46.055Z,17.30
2017-09-03T19:14:13.541Z,17.20
2017-09-03T19:16:41.042Z,17.10
2017-09-03T19:19:08.525Z,17.00
2017-09-03T19:21:36.033Z,17.00
2017-09-03T19:24:03.521Z,16.90
2017-09-03T19:26:31.029Z,16.80
2017-09-03T19:28:58.688Z,16.80
2017-09-03T19:31:26.193Z,16.70
2017-09-03T19:33:53.681Z,16.60
2017-09-03T19:36:21.190Z,16.50
2017-09-03T19:38:48.677Z,16.40
2017-09-03T19:41:16.177Z,16.40
2017-09-03T19:43:43.741Z,16.30
2017-09-03T19:46:11.324Z,16.30
2017-09-03T19:48:38.904Z,16.20
2017-09-03T19:51:06.394Z,16.10
2017-09-03T19:53:33.997Z,16.10
2017-09-03T19:56:01.493Z,16.10
2017-09-03T19:58:29.865Z,16.10
2017-09-03T20:00:57.457Z,16.10
2017-09-03T20:03:24.999Z,16.00
2017-09-03T20:05:52.541Z,16.00
2017-09-03T20:08:20.045Z,16.00
2017-09-03T20:10:47.528Z,16.00
2017-09-03T20:13:15.069Z,16.00
2017-09-03T20:15:42.557Z,15.90
2017-09-03T20:18:10.149Z,15.90
2017-09-03T20:20:37.693Z,15.90
2017-09-03T20:23:05.222Z,16.00
2017-09-03T20:25:32.793Z,16.00
2017-09-03T20:28:00.297Z,16.10
2017-09-03T20:30:27.805Z,16.00
2017-09-03T20:32:55.321Z,16.10
2017-09-03T20:35:22.865Z,16.10
2017-09-03T20:37:50.357Z,16.10
2017-09-03T20:40:17.869Z,16.10
2017-09-03T20:42:45.360Z,16.10
2017-09-03T20:45:12.870Z,16.10
2017-09-03T20:47:40.358Z,16.10
2017-09-03T20:50:07.921Z,16.10
2017-09-03T20:52:35.500Z,16.10
2017-09-03T20:55:03.065Z,16.00
2017-09-03T20:57:30.637Z,16.00
2017-09-03T20:59:58.177Z,15.90
2017-09-03T21:02:25.685Z,15.90
2017-09-03T21:04:53.169Z,15.90
2017-09-03T21:07:20.685Z,15.90
2017-09-03T21:09:48.256Z,15.80
2017-09-03T21:12:15.794Z,15.80
2017-09-03T21:14:43.359Z,15.70
2017-09-03T21:17:10.885Z,15.60
2017-09-03T21:19:38.421Z,15.60
2017-09-03T21:22:05.965Z,15.50
2017-09-03T21:24:33.504Z,15.40
2017-09-03T21:27:01.063Z,15.40
2017-09-03T21:29:28.569Z,15.40
2017-09-03T21:31:56.073Z,15.40
2017-09-03T21:34:23.598Z,15.30
2017-09-03T21:36:51.136Z,15.30
2017-09-03T21:39:18.685Z,15.20
2017-09-03T21:41:46.262Z,15.10
2017-09-03T21:44:13.766Z,15.10
2017-09-03T21:46:41.254Z,15.00
2017-09-03T21:49:08.857Z,14.90
2017-09-03T21:51:36.400Z,14.70
2017-09-03T21:54:03.956Z,14.70
2017-09-03T21:56:31.485Z,14.70
2017-09-03T21:58:59.025Z,14.70
2017-09-03T22:01:26.572Z,14.80
2017-09-03T22:03:54.112Z,14.80
2017-09-03T22:06:21.600Z,14.80
2017-09-03T22:08:49.213Z,14.80
2017-09-03T22:11:16.769Z,14.70
2017-09-03T22:13:44.318Z,14.60
2017-09-03T22:16:11.861Z,14.60
2017-09-03T22:18:39.425Z,14.60
2017-09-03T22:21:06.943Z,14.50
2017-09-03T22:23:34.426Z,14.50
2017-09-03T22:26:02.033Z,14.40
2017-09-03T22:28:29.513Z,14.30
2017-09-03T22:30:57.008Z,14.30
2017-09-03T22:33:24.580Z,14.30
2017-09-03T22:35:52.209Z,14.20
2017-09-03T22:38:19.689Z,14.20
2017-09-03T22:40:47.196Z,14.20
2017-09-03T22:43:14.732Z,14.20
2017-09-03T22:45:42.279Z,14.20
2017-09-03T22:48:09.820Z,14.20
2017-09-03T22:50:37.368Z,14.20
2017-09-03T22:53:04.908Z,14.10
2017-09-03T22:55:32.392Z,14.10
2017-09-03T22:57:59.910Z,14.00
2017-09-03T23:00:27.441Z,13.90
2017-09-03T23:02:54.993Z,14.00
2017-09-03T23:05:22.499Z,14.00
2017-09-03T23:07:49.985Z,14.00
2017-09-03T23:10:17.528Z,14.00
2017-09-03T23:12:45.036Z,14.00
2017-09-03T23:15:12.617Z,13.90
2017-09-03T23:17:40.161Z,13.80
2017-09-03T23:20:07.704Z,13.70
2017-09-03T23:22:35.192Z,13.60
2017-09-03T23:25:02.794Z,13.50
2017-09-03T23:27:30.346Z,13.30
2017-09-03T23:29:57.853Z,13.30
2017-09-03T23:32:25.351Z,13.40
2017-09-03T23:34:52.960Z,13.40
2017-09-03T23:37:20.465Z,13.30
2017-09-03T23:39:47.948Z,13.30
2017-09-03T23:42:15.501Z,13.20
2017-09-03T23:44:42.991Z,13.30
2017-09-03T23:47:10.577Z,13.30
2017-09-03T23:49:38.061Z,13.30
2017-09-03T23:52:05.573Z,13.30
2017-09-03T23:54:33.057Z,13.40
2017-09-03T23:57:00.552Z,13.40
2017-09-03T23:59:28.032Z,13.40
